Time,TemperatureF,DewpointF,PressureIn,WindDirection,WindDirectionDegrees,WindSpeedMPH,WindSpeedGustMPH,Humidity,HourlyPrecipIn,Conditions,Clouds,dailyrainin,SoftwareType,DateUTC
2014-01-14 00:01:00,43.0,41.7,29.82,West,275,0.0,1.0,95,0.00,,---,0.00,VWS V14.01,2014-01-14 05:01:00,
2014-01-14 00:06:00,42.9,41.6,29.82,WNW,284,0.0,0.0,95,0.00,,---,0.00,VWS V14.01,2014-01-14 05:06:00,
2014-01-14 00:11:00,42.8,41.5,29.81,West,264,0.0,0.0,95,0.00,,---,0.00,VWS V14.01,2014-01-14 05:11:00,
2014-01-14 00:16:00,42.7,41.4,29.81,West,277,0.0,1.0,95,0.00,,---,0.00,VWS V14.01,2014-01-14 05:16:00,
2014-01-14 00:21:00,42.5,41.2,29.82,West,278,1.0,1.0,95,0.00,,---,0.00,VWS V14.01,2014-01-14 05:21:00,
2014-01-14 00:26:00,42.5,41.2,29.82,West,261,1.0,2.0,95,0.00,,---,0.00,VWS V14.01,2014-01-14 05:26:00,
2014-01-14 00:31:00,42.4,41.1,29.82,WSW,257,0.0,0.0,95,0.00,,---,0.00,VWS V14.01,2014-01-14 05:31:00,
2014-01-14 00:36:00,42.2,40.9,29.82,WSW,249,0.0,1.0,95,0.00,,---,0.00,VWS V14.01,2014-01-14 05:36:00,
2014-01-14 00:41:00,42.0,40.7,29.82,WSW,256,0.0,0.0,95,0.00,,---,0.00,VWS V14.01,2014-01-14 05:41:00,
2014-01-14 00:46:00,41.9,40.3,29.82,West,280,0.0,0.0,94,0.00,,---,0.00,VWS V14.01,2014-01-14 05:46:00,
2014-01-14 00:51:00,41.7,40.1,29.82,WNW,282,2.0,2.0,94,0.00,,---,0.00,VWS V14.01,2014-01-14 05:51:00,
2014-01-14 00:56:00,41.6,40.0,29.82,West,261,2.0,3.0,94,0.00,,---,0.00,VWS V14.01,2014-01-14 05:56:00,
2014-01-14 01:02:00,41.5,39.9,29.82,West,276,0.0,2.0,94,0.00,,---,0.00,VWS V14.01,2014-01-14 06:02:00,
2014-01-14 01:06:00,41.4,39.5,29.81,West,275,1.0,3.0,93,0.00,,---,0.00,VWS V14.01,2014-01-14 06:06:00,
2014-01-14 01:11:00,41.4,39.5,29.82,WSW,252,0.0,1.0,93,0.00,,---,0.00,VWS V14.01,2014-01-14 06:11:00,
2014-01-14 01:17:00,41.2,39.3,29.82,West,271,1.0,1.0,93,0.00,,---,0.00,VWS V14.01,2014-01-14 06:17:00,
2014-01-14 01:22:00,40.9,39.0,29.82,WSW,250,0.0,3.0,93,0.00,,---,0.00,VWS V14.01,2014-01-14 06:22:00,
2014-01-14 01:27:00,40.8,38.7,29.83,WSW,247,0.0,1.0,92,0.00,,---,0.00,VWS V14.01,2014-01-14 06:27:00,
2014-01-14 01:32:00,40.6,38.5,29.82,WNW,288,0.0,0.0,92,0.00,,---,0.00,VWS V14.01,2014-01-14 06:32:00,
2014-01-14 01:37:00,40.3,38.4,29.82,SW,233,0.0,0.0,93,0.00,,---,0.00,VWS V14.01,2014-01-14 06:37:00,
2014-01-14 01:38:00,40.3,38.4,29.82,SW,233,0.0,0.0,93,0.00,,---,0.00,VWS V14.01,2014-01-14 06:38:00,
2014-01-14 01:43:00,40.0,38.1,29.82,WSW,252,0.0,0.0,93,0.00,,---,0.00,VWS V14.01,2014-01-14 06:43:00,
2014-01-14 01:48:00,39.8,38.0,29.82,WSW,250,0.0,0.0,93,0.00,,---,0.00,VWS V14.01,2014-01-14 06:48:00,
2014-01-14 01:53:00,39.6,37.8,29.82,WSW,252,0.0,0.0,93,0.00,,---,0.00,VWS V14.01,2014-01-14 06:53:00,
2014-01-14 01:58:00,39.4,37.5,29.82,WSW,253,0.0,0.0,93,0.00,,---,0.00,VWS V14.01,2014-01-14 06:58:00,
2014-01-14 02:03:00,39.2,37.3,29.82,WSW,252,0.0,0.0,93,0.00,,---,0.00,VWS V14.01,2014-01-14 07:03:00,
2014-01-14 02:08:00,39.0,37.2,29.82,West,265,1.0,1.0,93,0.00,,---,0.00,VWS V14.01,2014-01-14 07:08:00,
2014-01-14 02:13:00,39.0,37.4,29.82,West,280,0.0,1.0,94,0.00,,---,0.00,VWS V14.01,2014-01-14 07:13:00,
2014-01-14 02:18:00,38.9,37.0,29.82,West,266,0.0,2.0,93,0.00,,---,0.00,VWS V14.01,2014-01-14 07:18:00,
2014-01-14 02:23:00,38.8,37.0,29.83,West,267,1.0,2.0,93,0.00,,---,0.00,VWS V14.01,2014-01-14 07:23:00,
2014-01-14 02:28:00,38.7,36.6,29.83,WSW,247,1.0,3.0,92,0.00,,---,0.00,VWS V14.01,2014-01-14 07:28:00,
2014-01-14 02:33:00,38.6,36.2,29.83,SW,216,3.0,4.0,91,0.00,,---,0.00,VWS V14.01,2014-01-14 07:33:00,
2014-01-14 02:38:00,38.6,36.2,29.83,WSW,247,0.0,2.0,91,0.00,,---,0.00,VWS V14.01,2014-01-14 07:38:00,
2014-01-14 02:42:00,38.4,35.7,29.83,WSW,257,1.0,3.0,90,0.00,,---,0.00,VWS V14.01,2014-01-14 07:42:00,
2014-01-14 02:47:00,38.1,35.7,29.83,WNW,292,1.0,3.0,91,0.00,,---,0.00,VWS V14.01,2014-01-14 07:47:00,
2014-01-14 02:52:00,37.9,35.5,29.84,West,271,1.0,3.0,91,0.00,,---,0.00,VWS V14.01,2014-01-14 07:52:00,
2014-01-14 02:57:00,37.7,35.3,29.84,WNW,287,1.0,3.0,91,0.00,,---,0.00,VWS V14.01,2014-01-14 07:57:00,
2014-01-14 03:02:00,37.5,35.1,29.84,West,272,1.0,5.0,91,0.00,,---,0.00,VWS V14.01,2014-01-14 08:02:00,
2014-01-14 03:07:00,37.3,34.6,29.84,WNW,284,1.0,3.0,90,0.00,,---,0.00,VWS V14.01,2014-01-14 08:07:00,
2014-01-14 03:12:00,37.1,34.4,29.84,NW,305,1.0,4.0,90,0.00,,---,0.00,VWS V14.01,2014-01-14 08:12:00,
2014-01-14 03:17:00,37.0,34.3,29.85,West,273,1.0,1.0,90,0.00,,---,0.00,VWS V14.01,2014-01-14 08:17:00,
2014-01-14 03:22:00,36.9,34.0,29.85,WNW,284,2.0,4.0,89,0.00,,---,0.00,VWS V14.01,2014-01-14 08:22:00,
2014-01-14 03:27:00,36.8,33.9,29.86,West,261,0.0,1.0,89,0.00,,---,0.00,VWS V14.01,2014-01-14 08:27:00,
2014-01-14 03:32:00,36.6,33.7,29.86,West,260,0.0,1.0,89,0.00,,---,0.00,VWS V14.01,2014-01-14 08:32:00,
2014-01-14 03:37:00,36.3,33.4,29.86,West,263,0.0,2.0,89,0.00,,---,0.00,VWS V14.01,2014-01-14 08:37:00,
2014-01-14 03:42:00,36.1,33.5,29.86,West,280,0.0,2.0,90,0.00,,---,0.00,VWS V14.01,2014-01-14 08:42:00,
2014-01-14 03:47:00,35.9,33.3,29.86,WSW,249,0.0,1.0,90,0.00,,---,0.00,VWS V14.01,2014-01-14 08:47:00,
2014-01-14 03:52:00,35.5,32.9,29.86,WSW,250,0.0,0.0,90,0.00,,---,0.00,VWS V14.01,2014-01-14 08:52:00,
2014-01-14 03:57:00,35.1,32.5,29.86,WSW,250,0.0,0.0,90,0.00,,---,0.00,VWS V14.01,2014-01-14 08:57:00,
2014-01-14 04:02:00,34.7,32.3,29.86,SW,226,0.0,1.0,91,0.00,,---,0.00,VWS V14.01,2014-01-14 09:02:00,
2014-01-14 04:07:00,34.3,32.0,29.85,SW,229,0.0,0.0,91,0.00,,---,0.00,VWS V14.01,2014-01-14 09:07:00,
2014-01-14 04:12:00,33.9,31.8,29.85,SW,228,0.0,0.0,92,0.00,,---,0.00,VWS V14.01,2014-01-14 09:12:00,
2014-01-14 04:17:00,33.6,31.5,29.86,SW,227,0.0,0.0,92,0.00,,---,0.00,VWS V14.01,2014-01-14 09:17:00,
2014-01-14 04:22:00,33.3,31.2,29.85,SW,228,0.0,0.0,92,0.00,,---,0.00,VWS V14.01,2014-01-14 09:22:00,
2014-01-14 04:27:00,33.1,31.3,29.85,WSW,243,0.0,2.0,93,0.00,,---,0.00,VWS V14.01,2014-01-14 09:27:00,
2014-01-14 04:32:00,33.0,31.2,29.86,West,260,0.0,1.0,93,0.00,,---,0.00,VWS V14.01,2014-01-14 09:32:00,
2014-01-14 04:37:00,32.9,31.1,29.86,West,266,0.0,0.0,93,0.00,,---,0.00,VWS V14.01,2014-01-14 09:37:00,
2014-01-14 04:42:00,32.6,30.8,29.85,West,266,0.0,0.0,93,0.00,,---,0.00,VWS V14.01,2014-01-14 09:42:00,
2014-01-14 04:47:00,32.3,30.5,29.85,WSW,246,0.0,0.0,93,0.00,,---,0.00,VWS V14.01,2014-01-14 09:47:00,
2014-01-14 04:52:00,32.0,30.2,29.86,WSW,246,0.0,0.0,93,0.00,,---,0.00,VWS V14.01,2014-01-14 09:52:00,
2014-01-14 04:57:00,31.7,29.9,29.86,WSW,247,0.0,0.0,93,0.00,,---,0.00,VWS V14.01,2014-01-14 09:57:00,
2014-01-14 05:03:00,31.4,29.6,29.86,North,0,0.0,0.0,93,0.00,,---,0.00,VWS V14.01,2014-01-14 10:03:00,
2014-01-14 05:08:00,31.0,29.2,29.86,WSW,246,0.0,0.0,93,0.01,,---,0.01,VWS V14.01,2014-01-14 10:08:00,
2014-01-14 05:13:00,30.8,29.3,29.86,WSW,247,0.0,0.0,94,0.01,,---,0.01,VWS V14.01,2014-01-14 10:13:00,
2014-01-14 05:18:00,30.6,29.1,29.86,WSW,246,0.0,0.0,94,0.01,,---,0.01,VWS V14.01,2014-01-14 10:18:00,
2014-01-14 05:23:00,30.4,28.9,29.86,WSW,246,0.0,0.0,94,0.01,,---,0.01,VWS V14.01,2014-01-14 10:23:00,
2014-01-14 05:28:00,30.2,28.7,29.86,WSW,246,0.0,0.0,94,0.01,,---,0.01,VWS V14.01,2014-01-14 10:28:00,
2014-01-14 05:33:00,29.9,28.4,29.87,WSW,246,0.0,0.0,94,0.01,,---,0.01,VWS V14.01,2014-01-14 10:33:00,
2014-01-14 05:38:00,29.8,28.3,29.87,WSW,246,0.0,0.0,94,0.01,,---,0.01,VWS V14.01,2014-01-14 10:38:00,
2014-01-14 05:43:00,29.7,28.2,29.88,WSW,246,0.0,0.0,94,0.01,,---,0.01,VWS V14.01,2014-01-14 10:43:00,
2014-01-14 05:48:00,29.5,28.0,29.88,WSW,246,0.0,0.0,94,0.01,,---,0.01,VWS V14.01,2014-01-14 10:48:00,
2014-01-14 05:53:00,29.3,27.8,29.87,WSW,246,0.0,0.0,94,0.01,,---,0.01,VWS V14.01,2014-01-14 10:53:00,
2014-01-14 05:58:00,29.1,27.6,29.87,WSW,246,0.0,0.0,94,0.01,,---,0.01,VWS V14.01,2014-01-14 10:58:00,
2014-01-14 06:03:00,28.9,27.4,29.88,WSW,246,0.0,0.0,94,0.01,,---,0.01,VWS V14.01,2014-01-14 11:03:00,
2014-01-14 06:08:00,28.8,27.3,29.87,WSW,246,0.0,0.0,94,0.00,,---,0.01,VWS V14.01,2014-01-14 11:08:00,
2014-01-14 06:13:00,28.8,27.5,29.87,WSW,246,0.0,0.0,95,0.00,,---,0.01,VWS V14.01,2014-01-14 11:13:00,
2014-01-14 06:18:00,28.7,27.5,29.87,WSW,246,0.0,0.0,95,0.00,,---,0.01,VWS V14.01,2014-01-14 11:18:00,
2014-01-14 06:23:00,28.6,27.4,29.87,WSW,246,0.0,0.0,95,0.00,,---,0.01,VWS V14.01,2014-01-14 11:23:00,
2014-01-14 06:28:00,28.5,27.2,29.87,WSW,246,0.0,0.0,95,0.00,,---,0.01,VWS V14.01,2014-01-14 11:28:00,
2014-01-14 06:33:00,28.3,27.0,29.88,WSW,246,0.0,0.0,95,0.00,,---,0.01,VWS V14.01,2014-01-14 11:33:00,
2014-01-14 06:37:00,28.1,26.9,29.88,WSW,246,0.0,0.0,95,0.00,,---,0.01,VWS V14.01,2014-01-14 11:37:00,
2014-01-14 06:42:00,28.0,26.8,29.88,WSW,246,0.0,0.0,95,0.00,,---,0.01,VWS V14.01,2014-01-14 11:42:00,
2014-01-14 06:47:00,27.9,26.7,29.88,WSW,246,0.0,0.0,95,0.00,,---,0.01,VWS V14.01,2014-01-14 11:47:00,
2014-01-14 06:52:00,27.7,26.5,29.88,WSW,246,0.0,0.0,95,0.00,,---,0.01,VWS V14.01,2014-01-14 11:52:00,
2014-01-14 06:57:00,27.6,26.4,29.88,WSW,246,0.0,0.0,95,0.00,,---,0.01,VWS V14.01,2014-01-14 11:57:00,
2014-01-14 07:02:00,27.5,26.3,29.88,WSW,246,0.0,0.0,95,0.00,,---,0.01,VWS V14.01,2014-01-14 12:02:00,
2014-01-14 07:07:00,27.3,26.1,29.88,WSW,246,0.0,0.0,95,0.00,,---,0.01,VWS V14.01,2014-01-14 12:07:00,
2014-01-14 07:12:00,27.1,25.9,29.89,WSW,246,0.0,0.0,95,0.00,,---,0.01,VWS V14.01,2014-01-14 12:12:00,
2014-01-14 07:17:00,26.9,25.7,29.89,WSW,245,0.0,0.0,95,0.00,,---,0.01,VWS V14.01,2014-01-14 12:17:00,
2014-01-14 07:22:00,26.8,25.6,29.89,WSW,246,0.0,0.0,95,0.00,,---,0.01,VWS V14.01,2014-01-14 12:22:00,
2014-01-14 07:27:00,26.7,25.5,29.89,WSW,246,0.0,0.0,95,0.00,,---,0.01,VWS V14.01,2014-01-14 12:27:00,
2014-01-14 07:32:00,26.7,25.5,29.90,WSW,245,0.0,0.0,95,0.00,,---,0.01,VWS V14.01,2014-01-14 12:32:00,
2014-01-14 07:37:00,26.6,25.4,29.90,WSW,246,0.0,0.0,95,0.00,,---,0.01,VWS V14.01,2014-01-14 12:37:00,
2014-01-14 07:42:00,26.7,25.5,29.90,WSW,246,0.0,0.0,95,0.00,,---,0.01,VWS V14.01,2014-01-14 12:42:00,
2014-01-14 07:47:00,26.5,25.3,29.90,WSW,246,0.0,0.0,95,0.00,,---,0.01,VWS V14.01,2014-01-14 12:47:00,
2014-01-14 07:52:00,26.5,25.3,29.90,WSW,246,0.0,0.0,95,0.00,,---,0.01,VWS V14.01,2014-01-14 12:52:00,
2014-01-14 07:57:00,26.4,25.2,29.90,WSW,246,0.0,0.0,95,0.00,,---,0.01,VWS V14.01,2014-01-14 12:57:00,
2014-01-14 08:02:00,26.3,25.1,29.90,WSW,246,0.0,0.0,95,0.00,,---,0.01,VWS V14.01,2014-01-14 13:02:00,
2014-01-14 08:07:00,26.5,25.3,29.90,WSW,246,0.0,0.0,95,0.00,,---,0.01,VWS V14.01,2014-01-14 13:07:00,
2014-01-14 08:12:00,26.5,25.3,29.90,WSW,246,0.0,0.0,95,0.00,,---,0.01,VWS V14.01,2014-01-14 13:12:00,
2014-01-14 08:17:00,26.5,25.3,29.90,WSW,246,0.0,0.0,95,0.00,,---,0.01,VWS V14.01,2014-01-14 13:17:00,
2014-01-14 08:22:00,26.7,25.5,29.90,WSW,246,0.0,0.0,95,0.00,,---,0.01,VWS V14.01,2014-01-14 13:22:00,
2014-01-14 08:27:00,27.2,26.0,29.90,WSW,246,0.0,0.0,95,0.00,,---,0.01,VWS V14.01,2014-01-14 13:27:00,
2014-01-14 08:32:00,28.0,26.8,29.91,WSW,246,0.0,0.0,95,0.00,,---,0.01,VWS V14.01,2014-01-14 13:32:00,
2014-01-14 08:37:00,28.6,27.4,29.91,WSW,246,0.0,0.0,95,0.00,,---,0.01,VWS V14.01,2014-01-14 13:37:00,
2014-01-14 08:42:00,29.5,28.2,29.90,WSW,246,0.0,0.0,95,0.00,,---,0.01,VWS V14.01,2014-01-14 13:42:00,
2014-01-14 08:47:00,29.9,28.6,29.90,WSW,246,0.0,0.0,95,0.00,,---,0.01,VWS V14.01,2014-01-14 13:47:00,
2014-01-14 08:57:00,30.6,29.3,29.90,East,101,0.0,0.0,95,0.00,,---,0.01,VWS V14.01,2014-01-14 13:57:00,
2014-01-14 09:03:00,31.1,29.8,29.90,North,0,0.0,0.0,95,0.00,,---,0.01,VWS V14.01,2014-01-14 14:03:00,
2014-01-14 09:08:00,31.4,30.1,29.90,ESE,102,0.0,0.0,95,0.00,,---,0.01,VWS V14.01,2014-01-14 14:08:00,
2014-01-14 09:13:00,31.7,30.4,29.90,WSW,249,0.0,0.0,95,0.00,,---,0.01,VWS V14.01,2014-01-14 14:13:00,
2014-01-14 09:18:00,32.2,30.9,29.90,WSW,256,0.0,0.0,95,0.00,,---,0.01,VWS V14.01,2014-01-14 14:18:00,
2014-01-14 09:23:00,32.8,31.5,29.90,WSW,256,0.0,0.0,95,0.00,,---,0.01,VWS V14.01,2014-01-14 14:23:00,
2014-01-14 09:28:00,33.0,31.5,29.91,WSW,252,0.0,2.0,94,0.00,,---,0.01,VWS V14.01,2014-01-14 14:28:00,
2014-01-14 09:33:00,33.3,31.8,29.91,SW,216,0.0,0.0,94,0.00,,---,0.01,VWS V14.01,2014-01-14 14:33:00,
2014-01-14 09:38:00,33.3,31.8,29.91,SW,222,0.0,0.0,94,0.00,,---,0.01,VWS V14.01,2014-01-14 14:38:00,
2014-01-14 09:43:00,33.6,32.1,29.91,SW,233,0.0,0.0,94,0.00,,---,0.01,VWS V14.01,2014-01-14 14:43:00,
2014-01-14 09:48:00,33.9,32.4,29.91,SE,136,0.0,0.0,94,0.00,,---,0.01,VWS V14.01,2014-01-14 14:48:00,
2014-01-14 09:53:00,34.4,32.9,29.92,WSW,239,0.0,0.0,94,0.00,,---,0.01,VWS V14.01,2014-01-14 14:53:00,
2014-01-14 09:58:00,34.7,33.2,29.92,South,170,0.0,0.0,94,0.00,,---,0.01,VWS V14.01,2014-01-14 14:58:00,
2014-01-14 10:03:00,35.2,33.7,29.92,South,178,0.0,0.0,94,0.00,,---,0.01,VWS V14.01,2014-01-14 15:03:00,
2014-01-14 10:08:00,35.5,33.7,29.92,SSW,205,0.0,0.0,93,0.00,,---,0.01,VWS V14.01,2014-01-14 15:08:00,
2014-01-14 10:13:00,36.0,33.9,29.93,South,169,2.0,2.0,92,0.00,,---,0.01,VWS V14.01,2014-01-14 15:13:00,
2014-01-14 10:18:00,36.4,34.3,29.93,SSW,207,0.0,0.0,92,0.00,,---,0.01,VWS V14.01,2014-01-14 15:18:00,
2014-01-14 10:23:00,36.8,34.2,29.93,South,176,0.0,0.0,90,0.00,,---,0.01,VWS V14.01,2014-01-14 15:23:00,
2014-01-14 10:28:00,37.3,34.1,29.93,NE,40,0.0,0.0,88,0.00,,---,0.01,VWS V14.01,2014-01-14 15:28:00,
2014-01-14 10:33:00,37.8,34.0,29.92,East,79,1.0,1.0,86,0.00,,---,0.01,VWS V14.01,2014-01-14 15:33:00,
2014-01-14 10:38:00,38.4,34.3,29.92,SW,225,0.0,1.0,85,0.00,,---,0.01,VWS V14.01,2014-01-14 15:38:00,
2014-01-14 10:43:00,39.5,34.8,29.92,SW,233,0.0,0.0,83,0.00,,---,0.01,VWS V14.01,2014-01-14 15:43:00,
2014-01-14 10:48:00,40.1,35.7,29.92,South,184,0.0,0.0,84,0.00,,---,0.01,VWS V14.01,2014-01-14 15:48:00,
2014-01-14 10:53:00,40.9,36.1,29.92,East,93,4.0,5.0,83,0.00,,---,0.01,VWS V14.01,2014-01-14 15:53:00,
2014-01-14 10:58:00,41.2,35.8,29.93,SW,236,2.0,2.0,81,0.00,,---,0.01,VWS V14.01,2014-01-14 15:58:00,
2014-01-14 11:03:00,41.6,36.5,29.93,SSW,195,1.0,3.0,82,0.00,,---,0.01,VWS V14.01,2014-01-14 16:03:00,
2014-01-14 11:08:00,41.9,36.5,29.92,SE,133,1.0,2.0,81,0.00,,---,0.01,VWS V14.01,2014-01-14 16:08:00,
2014-01-14 11:13:00,42.1,36.7,29.92,ENE,65,0.0,1.0,81,0.00,,---,0.01,VWS V14.01,2014-01-14 16:13:00,
2014-01-14 11:18:00,42.7,37.0,29.92,ESE,118,0.0,1.0,80,0.00,,---,0.01,VWS V14.01,2014-01-14 16:18:00,
2014-01-14 11:23:00,43.0,37.6,29.92,SSW,204,2.0,2.0,81,0.00,,---,0.01,VWS V14.01,2014-01-14 16:23:00,
2014-01-14 11:28:00,43.5,37.1,29.93,WSW,239,0.0,0.0,78,0.00,,---,0.01,VWS V14.01,2014-01-14 16:28:00,
2014-01-14 11:33:00,43.7,37.0,29.93,SE,146,2.0,3.0,77,0.00,,---,0.01,VWS V14.01,2014-01-14 16:33:00,
2014-01-14 11:38:00,43.7,36.3,29.93,SE,138,1.0,4.0,75,0.00,,---,0.01,VWS V14.01,2014-01-14 16:38:00,
2014-01-14 11:43:00,43.8,36.7,29.92,SSW,192,1.0,1.0,76,0.00,,---,0.01,VWS V14.01,2014-01-14 16:43:00,
2014-01-14 11:48:00,43.9,36.8,29.92,East,101,1.0,1.0,76,0.00,,---,0.01,VWS V14.01,2014-01-14 16:48:00,
2014-01-14 11:53:00,44.4,37.3,29.91,SW,226,2.0,2.0,76,0.00,,---,0.01,VWS V14.01,2014-01-14 16:53:00,
2014-01-14 11:58:00,44.8,37.4,29.91,South,180,4.0,4.0,75,0.00,,---,0.01,VWS V14.01,2014-01-14 16:58:00,
2014-01-14 12:03:00,45.2,37.8,29.90,West,270,3.0,3.0,75,0.00,,---,0.01,VWS V14.01,2014-01-14 17:03:00,
2014-01-14 12:08:00,45.5,37.0,29.90,South,187,3.0,3.0,72,0.00,,---,0.01,VWS V14.01,2014-01-14 17:08:00,
2014-01-14 12:13:00,45.5,37.4,29.90,South,178,3.0,3.0,73,0.00,,---,0.01,VWS V14.01,2014-01-14 17:13:00,
2014-01-14 12:18:00,45.7,37.5,29.90,SW,214,1.0,2.0,73,0.00,,---,0.01,VWS V14.01,2014-01-14 17:18:00,
2014-01-14 12:23:00,46.1,37.9,29.89,SSE,152,3.0,4.0,73,0.00,,---,0.01,VWS V14.01,2014-01-14 17:23:00,
2014-01-14 12:28:00,46.4,37.5,29.89,SSW,204,4.0,5.0,71,0.00,,---,0.01,VWS V14.01,2014-01-14 17:28:00,
2014-01-14 12:33:00,46.3,37.4,29.89,ENE,75,1.0,2.0,71,0.00,,---,0.01,VWS V14.01,2014-01-14 17:33:00,
2014-01-14 12:38:00,46.8,38.3,29.88,SSE,165,0.0,0.0,72,0.00,,---,0.01,VWS V14.01,2014-01-14 17:38:00,
2014-01-14 12:43:00,47.3,38.0,29.88,SSE,155,1.0,1.0,70,0.00,,---,0.01,VWS V14.01,2014-01-14 17:43:00,
2014-01-14 12:48:00,47.3,37.7,29.88,SW,214,0.0,2.0,69,0.00,,---,0.01,VWS V14.01,2014-01-14 17:48:00,
2014-01-14 12:53:00,47.4,37.0,29.87,East,88,0.0,4.0,67,0.00,,---,0.01,VWS V14.01,2014-01-14 17:53:00,
2014-01-14 12:58:00,47.5,38.2,29.87,SE,136,0.0,7.0,70,0.00,,---,0.01,VWS V14.01,2014-01-14 17:58:00,
2014-01-14 13:03:00,47.8,37.8,29.87,SSE,167,0.0,4.0,68,0.00,,---,0.01,VWS V14.01,2014-01-14 18:03:00,
2014-01-14 13:08:00,47.9,37.5,29.87,SSE,147,1.0,4.0,67,0.00,,---,0.01,VWS V14.01,2014-01-14 18:08:00,
2014-01-14 13:13:00,48.2,38.2,29.87,SSE,160,5.0,8.0,68,0.00,,---,0.01,VWS V14.01,2014-01-14 18:13:00,
2014-01-14 13:18:00,48.3,37.9,29.86,SSE,152,5.0,9.0,67,0.00,,---,0.01,VWS V14.01,2014-01-14 18:18:00,
2014-01-14 13:23:00,48.5,37.3,29.86,ENE,65,1.0,5.0,65,0.00,,---,0.01,VWS V14.01,2014-01-14 18:23:00,
2014-01-14 13:28:00,48.7,37.1,29.86,SSW,204,2.0,2.0,64,0.00,,---,0.01,VWS V14.01,2014-01-14 18:28:00,
2014-01-14 13:33:00,48.7,37.1,29.85,SE,144,6.0,7.0,64,0.00,,---,0.01,VWS V14.01,2014-01-14 18:33:00,
2014-01-14 13:37:00,48.8,37.2,29.85,SSW,202,1.0,4.0,64,0.00,,---,0.01,VWS V14.01,2014-01-14 18:37:00,
2014-01-14 13:42:00,48.9,36.9,29.85,SE,137,4.0,7.0,63,0.00,,---,0.01,VWS V14.01,2014-01-14 18:42:00,
2014-01-14 13:47:00,49.2,38.3,29.84,WSW,249,1.0,1.0,66,0.00,,---,0.01,VWS V14.01,2014-01-14 18:47:00,
2014-01-14 13:52:00,49.3,37.2,29.84,SW,233,1.0,4.0,63,0.00,,---,0.01,VWS V14.01,2014-01-14 18:52:00,
2014-01-14 13:57:00,49.5,36.6,29.84,SSE,154,5.0,7.0,61,0.00,,---,0.01,VWS V14.01,2014-01-14 18:57:00,
2014-01-14 14:02:00,49.6,36.7,29.83,South,190,2.0,3.0,61,0.00,,---,0.01,VWS V14.01,2014-01-14 19:02:00,
2014-01-14 14:07:00,49.8,37.7,29.84,WNW,295,3.0,3.0,63,0.00,,---,0.01,VWS V14.01,2014-01-14 19:07:00,
2014-01-14 14:12:00,49.9,37.8,29.83,SSW,211,1.0,1.0,63,0.00,,---,0.01,VWS V14.01,2014-01-14 19:12:00,
2014-01-14 14:17:00,50.0,37.9,29.83,SE,129,0.0,0.0,63,0.00,,---,0.01,VWS V14.01,2014-01-14 19:17:00,
2014-01-14 14:22:00,50.2,37.7,29.83,ESE,118,0.0,2.0,62,0.00,,---,0.01,VWS V14.01,2014-01-14 19:22:00,
2014-01-14 14:27:00,50.5,37.6,29.83,West,261,3.0,5.0,61,0.00,,---,0.01,VWS V14.01,2014-01-14 19:27:00,
2014-01-14 14:32:00,50.7,38.2,29.83,SSW,201,4.0,4.0,62,0.00,,---,0.01,VWS V14.01,2014-01-14 19:32:00,
2014-01-14 14:37:00,50.8,37.0,29.83,South,183,2.0,5.0,59,0.00,,---,0.01,VWS V14.01,2014-01-14 19:37:00,
2014-01-14 14:42:00,51.0,38.0,29.83,ESE,109,0.0,1.0,61,0.00,,---,0.01,VWS V14.01,2014-01-14 19:42:00,
2014-01-14 14:47:00,51.2,37.4,29.83,ENE,69,2.0,6.0,59,0.00,,---,0.01,VWS V14.01,2014-01-14 19:47:00,
2014-01-14 14:52:00,51.3,38.3,29.83,ESE,110,2.0,3.0,61,0.00,,---,0.01,VWS V14.01,2014-01-14 19:52:00,
2014-01-14 14:57:00,51.3,38.3,29.83,SSW,195,1.0,4.0,61,0.00,,---,0.01,VWS V14.01,2014-01-14 19:57:00,
2014-01-14 15:02:00,51.4,38.4,29.83,NNE,16,2.0,2.0,61,0.00,,---,0.01,VWS V14.01,2014-01-14 20:02:00,
2014-01-14 15:07:00,51.6,37.3,29.83,SE,128,0.0,2.0,58,0.00,,---,0.01,VWS V14.01,2014-01-14 20:07:00,
2014-01-14 15:12:00,51.6,36.4,29.83,WSW,247,1.0,2.0,56,0.00,,---,0.01,VWS V14.01,2014-01-14 20:12:00,
2014-01-14 15:17:00,51.7,37.4,29.83,SSE,159,0.0,3.0,58,0.00,,---,0.01,VWS V14.01,2014-01-14 20:17:00,
2014-01-14 15:22:00,51.7,37.0,29.83,SW,225,3.0,4.0,57,0.00,,---,0.01,VWS V14.01,2014-01-14 20:22:00,
2014-01-14 15:27:00,51.8,37.1,29.83,SSW,192,1.0,4.0,57,0.00,,---,0.01,VWS V14.01,2014-01-14 20:27:00,
2014-01-14 15:32:00,52.0,37.7,29.82,SSW,204,4.0,7.0,58,0.00,,---,0.01,VWS V14.01,2014-01-14 20:32:00,
2014-01-14 15:37:00,51.9,37.6,29.83,SSE,164,2.0,2.0,58,0.00,,---,0.01,VWS V14.01,2014-01-14 20:37:00,
2014-01-14 15:42:00,52.1,37.3,29.83,ESE,110,0.0,7.0,57,0.00,,---,0.01,VWS V14.01,2014-01-14 20:42:00,
2014-01-14 15:47:00,52.4,38.1,29.83,WSW,240,9.0,11.0,58,0.00,,---,0.01,VWS V14.01,2014-01-14 20:47:00,
2014-01-14 15:52:00,52.5,37.3,29.83,South,170,2.0,4.0,56,0.00,,---,0.01,VWS V14.01,2014-01-14 20:52:00,
2014-01-14 15:57:00,52.8,37.5,29.83,West,260,2.0,2.0,56,0.00,,---,0.01,VWS V14.01,2014-01-14 20:57:00,
2014-01-14 16:02:00,52.4,36.7,29.83,SSE,160,2.0,4.0,55,0.00,,---,0.01,VWS V14.01,2014-01-14 21:02:00,
2014-01-14 16:07:00,52.3,37.1,29.83,West,274,0.0,1.0,56,0.00,,---,0.01,VWS V14.01,2014-01-14 21:07:00,
2014-01-14 16:12:00,52.1,36.9,29.84,SSE,150,1.0,4.0,56,0.00,,---,0.01,VWS V14.01,2014-01-14 21:12:00,
2014-01-14 16:17:00,51.7,37.0,29.83,South,180,2.0,3.0,57,0.00,,---,0.01,VWS V14.01,2014-01-14 21:17:00,
2014-01-14 16:22:00,51.3,37.0,29.83,South,189,0.0,2.0,58,0.00,,---,0.01,VWS V14.01,2014-01-14 21:22:00,
2014-01-14 16:27:00,51.2,37.4,29.84,East,79,0.0,1.0,59,0.00,,---,0.01,VWS V14.01,2014-01-14 21:27:00,
2014-01-14 16:32:00,51.1,37.7,29.84,SSE,155,0.0,0.0,60,0.00,,---,0.01,VWS V14.01,2014-01-14 21:32:00,
2014-01-14 16:37:00,50.9,36.7,29.84,SSE,147,0.0,2.0,58,0.00,,---,0.01,VWS V14.01,2014-01-14 21:37:00,
2014-01-14 16:42:00,51.0,37.6,29.84,SW,226,2.0,2.0,60,0.00,,---,0.01,VWS V14.01,2014-01-14 21:42:00,
2014-01-14 16:47:00,51.0,37.2,29.84,WSW,246,0.0,1.0,59,0.00,,---,0.01,VWS V14.01,2014-01-14 21:47:00,
2014-01-14 16:52:00,50.9,37.5,29.84,SW,218,6.0,6.0,60,0.00,,---,0.01,VWS V14.01,2014-01-14 21:52:00,
2014-01-14 16:57:00,50.6,37.2,29.84,ENE,70,0.0,0.0,60,0.00,,---,0.01,VWS V14.01,2014-01-14 21:57:00,
2014-01-14 17:02:00,50.3,37.4,29.84,SE,145,0.0,0.0,61,0.00,,---,0.01,VWS V14.01,2014-01-14 22:02:00,
2014-01-14 17:07:00,50.0,37.5,29.84,NW,315,0.0,1.0,62,0.00,,---,0.01,VWS V14.01,2014-01-14 22:07:00,
2014-01-14 17:12:00,49.7,37.2,29.85,SSW,207,1.0,3.0,62,0.00,,---,0.01,VWS V14.01,2014-01-14 22:12:00,
2014-01-14 17:17:00,49.6,36.7,29.85,SSE,156,0.0,4.0,61,0.00,,---,0.01,VWS V14.01,2014-01-14 22:17:00,
2014-01-14 17:22:00,49.6,36.7,29.85,WSW,252,0.0,0.0,61,0.00,,---,0.01,VWS V14.01,2014-01-14 22:22:00,
2014-01-14 17:27:00,49.5,37.0,29.85,East,95,1.0,1.0,62,0.00,,---,0.01,VWS V14.01,2014-01-14 22:27:00,
2014-01-14 17:32:00,49.3,36.8,29.85,SW,215,0.0,0.0,62,0.00,,---,0.01,VWS V14.01,2014-01-14 22:32:00,
2014-01-14 17:37:00,49.1,36.7,29.86,WNW,295,2.0,2.0,62,0.00,,---,0.01,VWS V14.01,2014-01-14 22:37:00,
2014-01-14 17:42:00,49.3,36.4,29.86,SW,236,4.0,4.0,61,0.00,,---,0.01,VWS V14.01,2014-01-14 22:42:00,
2014-01-14 17:47:00,49.5,36.2,29.86,WSW,247,2.0,3.0,60,0.00,,---,0.01,VWS V14.01,2014-01-14 22:47:00,
2014-01-14 17:52:00,49.4,36.5,29.88,WNW,299,10.0,10.0,61,0.00,,---,0.01,VWS V14.01,2014-01-14 22:52:00,
2014-01-14 17:57:00,46.6,36.6,29.89,WSW,244,10.0,11.0,68,0.00,,---,0.01,VWS V14.01,2014-01-14 22:57:00,
2014-01-14 18:02:00,44.9,36.4,29.90,NW,304,6.0,10.0,72,0.00,,---,0.01,VWS V14.01,2014-01-14 23:02:00,
2014-01-14 18:07:00,44.0,36.3,29.90,NNW,327,11.0,13.0,74,0.00,,---,0.01,VWS V14.01,2014-01-14 23:07:00,
2014-01-14 18:12:00,43.5,36.5,29.91,NW,318,8.0,10.0,76,0.00,,---,0.01,VWS V14.01,2014-01-14 23:12:00,
2014-01-14 18:17:00,43.0,36.6,29.91,WSW,240,6.0,10.0,78,0.00,,---,0.01,VWS V14.01,2014-01-14 23:17:00,
2014-01-14 18:22:00,42.4,36.7,29.91,WNW,291,7.0,10.0,80,0.00,,---,0.01,VWS V14.01,2014-01-14 23:22:00,
2014-01-14 18:27:00,41.5,36.1,29.92,WNW,295,4.0,7.0,81,0.00,,---,0.01,VWS V14.01,2014-01-14 23:27:00,
2014-01-14 18:32:00,40.7,36.0,29.92,West,263,5.0,6.0,83,0.00,,---,0.01,VWS V14.01,2014-01-14 23:32:00,
2014-01-14 18:37:00,40.3,35.6,29.93,NW,325,6.0,6.0,83,0.01,,---,0.02,VWS V14.01,2014-01-14 23:37:00,
2014-01-14 18:42:00,40.1,35.1,29.93,WNW,299,5.0,13.0,82,0.01,,---,0.02,VWS V14.01,2014-01-14 23:42:00,
2014-01-14 18:47:00,39.4,34.7,29.94,NW,305,5.0,5.0,83,0.01,,---,0.02,VWS V14.01,2014-01-14 23:47:00,
2014-01-14 18:52:00,38.8,34.1,29.94,WNW,284,8.0,10.0,83,0.02,,---,0.03,VWS V14.01,2014-01-14 23:52:00,
2014-01-14 18:57:00,38.0,33.6,29.95,WNW,298,6.0,6.0,84,0.03,,---,0.04,VWS V14.01,2014-01-14 23:57:00,
2014-01-14 19:02:00,37.9,33.2,29.95,WNW,287,4.0,4.0,83,0.03,,---,0.04,VWS V14.01,2014-01-15 00:02:00,
2014-01-14 19:07:00,37.5,32.8,29.95,NW,308,2.0,2.0,83,0.03,,---,0.04,VWS V14.01,2014-01-15 00:07:00,
2014-01-14 19:12:00,37.3,32.9,29.95,West,260,1.0,4.0,84,0.03,,---,0.04,VWS V14.01,2014-01-15 00:12:00,
2014-01-14 19:17:00,37.5,32.8,29.95,WSW,246,2.0,3.0,83,0.03,,---,0.04,VWS V14.01,2014-01-15 00:17:00,
2014-01-14 19:22:00,38.1,33.1,29.95,West,260,3.0,7.0,82,0.03,,---,0.04,VWS V14.01,2014-01-15 00:22:00,
2014-01-14 19:27:00,38.1,33.4,29.96,WSW,247,2.0,9.0,83,0.03,,---,0.04,VWS V14.01,2014-01-15 00:27:00,
2014-01-14 19:32:00,37.9,33.5,29.96,NW,305,5.0,9.0,84,0.03,,---,0.04,VWS V14.01,2014-01-15 00:32:00,
2014-01-14 19:37:00,37.8,33.4,29.96,WNW,301,4.0,6.0,84,0.02,,---,0.04,VWS V14.01,2014-01-15 00:37:00,
2014-01-14 19:42:00,37.7,33.6,29.96,NW,322,5.0,5.0,85,0.02,,---,0.04,VWS V14.01,2014-01-15 00:42:00,
2014-01-14 19:47:00,37.5,33.4,29.97,West,275,2.0,6.0,85,0.02,,---,0.04,VWS V14.01,2014-01-15 00:47:00,
2014-01-14 19:52:00,37.5,33.7,29.97,WNW,288,3.0,4.0,86,0.01,,---,0.04,VWS V14.01,2014-01-15 00:52:00,
2014-01-14 19:57:00,37.4,33.6,29.97,WSW,254,4.0,7.0,86,0.00,,---,0.04,VWS V14.01,2014-01-15 00:57:00,
2014-01-14 20:02:00,37.3,33.5,29.97,West,263,2.0,4.0,86,0.00,,---,0.04,VWS V14.01,2014-01-15 01:02:00,
2014-01-14 20:07:00,37.3,33.5,29.97,West,278,6.0,6.0,86,0.00,,---,0.04,VWS V14.01,2014-01-15 01:07:00,
2014-01-14 20:12:00,37.3,33.5,29.97,WNW,295,1.0,5.0,86,0.00,,---,0.04,VWS V14.01,2014-01-15 01:12:00,
2014-01-14 20:16:00,37.2,33.4,29.97,West,268,3.0,5.0,86,0.00,,---,0.04,VWS V14.01,2014-01-15 01:16:00,
2014-01-14 20:21:00,37.2,33.4,29.97,West,275,6.0,8.0,86,0.00,,---,0.04,VWS V14.01,2014-01-15 01:21:00,
2014-01-14 20:26:00,37.1,33.3,29.97,WSW,248,1.0,3.0,86,0.00,,---,0.04,VWS V14.01,2014-01-15 01:26:00,
2014-01-14 20:31:00,37.0,33.2,29.98,NW,309,3.0,3.0,86,0.00,,---,0.04,VWS V14.01,2014-01-15 01:31:00,
2014-01-14 20:36:00,36.9,33.1,29.98,WNW,287,1.0,3.0,86,0.00,,---,0.04,VWS V14.01,2014-01-15 01:36:00,
2014-01-14 20:41:00,36.8,33.0,29.98,WNW,301,4.0,7.0,86,0.00,,---,0.04,VWS V14.01,2014-01-15 01:41:00,
2014-01-14 20:46:00,36.7,32.9,29.98,West,280,2.0,3.0,86,0.00,,---,0.04,VWS V14.01,2014-01-15 01:46:00,
2014-01-14 20:51:00,36.6,32.8,29.98,West,273,0.0,2.0,86,0.00,,---,0.04,VWS V14.01,2014-01-15 01:51:00,
2014-01-14 20:56:00,36.5,32.7,29.98,West,280,1.0,2.0,86,0.00,,---,0.04,VWS V14.01,2014-01-15 01:56:00,
2014-01-14 21:01:00,36.4,32.3,29.98,WSW,239,2.0,3.0,85,0.00,,---,0.04,VWS V14.01,2014-01-15 02:01:00,
2014-01-14 21:06:00,36.3,32.2,29.98,West,264,0.0,1.0,85,0.00,,---,0.04,VWS V14.01,2014-01-15 02:06:00,
2014-01-14 21:11:00,36.1,32.3,29.98,WSW,253,2.0,3.0,86,0.00,,---,0.04,VWS V14.01,2014-01-15 02:11:00,
2014-01-14 21:16:00,36.1,32.3,29.98,WNW,298,2.0,3.0,86,0.00,,---,0.04,VWS V14.01,2014-01-15 02:16:00,
2014-01-14 21:21:00,36.1,32.0,29.99,West,273,0.0,1.0,85,0.00,,---,0.04,VWS V14.01,2014-01-15 02:21:00,
2014-01-14 21:26:00,36.1,32.0,29.99,SW,236,0.0,1.0,85,0.00,,---,0.04,VWS V14.01,2014-01-15 02:26:00,
2014-01-14 21:31:00,36.2,32.1,29.98,WNW,282,2.0,4.0,85,0.00,,---,0.04,VWS V14.01,2014-01-15 02:31:00,
2014-01-14 21:36:00,36.3,32.2,29.99,West,266,2.0,3.0,85,0.00,,---,0.04,VWS V14.01,2014-01-15 02:36:00,
2014-01-14 21:41:00,36.6,32.2,29.99,WNW,289,5.0,7.0,84,0.00,,---,0.04,VWS V14.01,2014-01-15 02:41:00,
2014-01-14 21:46:00,36.8,32.4,29.99,NW,309,2.0,3.0,84,0.00,,---,0.04,VWS V14.01,2014-01-15 02:46:00,
2014-01-14 21:51:00,37.0,32.3,29.99,West,277,1.0,5.0,83,0.00,,---,0.04,VWS V14.01,2014-01-15 02:51:00,
2014-01-14 21:56:00,36.9,32.2,29.99,WSW,240,2.0,2.0,83,0.00,,---,0.04,VWS V14.01,2014-01-15 02:56:00,
2014-01-14 22:01:00,36.8,32.1,29.99,West,260,1.0,4.0,83,0.00,,---,0.04,VWS V14.01,2014-01-15 03:01:00,
2014-01-14 22:06:00,36.7,32.0,30.00,WNW,285,3.0,4.0,83,0.00,,---,0.04,VWS V14.01,2014-01-15 03:06:00,
2014-01-14 22:11:00,36.7,32.0,29.99,WNW,289,2.0,3.0,83,0.00,,---,0.04,VWS V14.01,2014-01-15 03:11:00,
2014-01-14 22:16:00,36.7,32.0,30.00,West,274,3.0,5.0,83,0.00,,---,0.04,VWS V14.01,2014-01-15 03:16:00,
2014-01-14 22:21:00,36.5,31.8,30.00,WNW,295,4.0,8.0,83,0.00,,---,0.04,VWS V14.01,2014-01-15 03:21:00,
2014-01-14 22:26:00,36.5,31.8,30.00,West,268,6.0,6.0,83,0.00,,---,0.04,VWS V14.01,2014-01-15 03:26:00,
2014-01-14 22:31:00,36.4,31.4,30.00,NW,306,2.0,11.0,82,0.00,,---,0.04,VWS V14.01,2014-01-15 03:31:00,
2014-01-14 22:36:00,36.3,31.3,30.00,WNW,288,3.0,5.0,82,0.00,,---,0.04,VWS V14.01,2014-01-15 03:36:00,
2014-01-14 22:41:00,36.1,31.1,30.01,WSW,253,5.0,5.0,82,0.00,,---,0.04,VWS V14.01,2014-01-15 03:41:00,
2014-01-14 22:46:00,35.9,31.0,30.01,West,275,3.0,3.0,82,0.00,,---,0.04,VWS V14.01,2014-01-15 03:46:00,
2014-01-14 22:51:00,35.6,30.7,30.00,WNW,301,2.0,2.0,82,0.00,,---,0.04,VWS V14.01,2014-01-15 03:51:00,
2014-01-14 22:56:00,35.5,30.6,30.00,West,273,5.0,7.0,82,0.00,,---,0.04,VWS V14.01,2014-01-15 03:56:00,
2014-01-14 23:01:00,35.3,30.4,30.01,SW,236,3.0,3.0,82,0.00,,---,0.04,VWS V14.01,2014-01-15 04:01:00,
2014-01-14 23:06:00,35.0,30.4,30.01,West,281,2.0,3.0,83,0.00,,---,0.04,VWS V14.01,2014-01-15 04:06:00,
2014-01-14 23:11:00,34.8,30.2,30.01,WSW,247,1.0,3.0,83,0.00,,---,0.04,VWS V14.01,2014-01-15 04:11:00,
2014-01-14 23:16:00,34.5,29.9,30.01,West,267,3.0,4.0,83,0.00,,---,0.04,VWS V14.01,2014-01-15 04:16:00,
2014-01-14 23:21:00,34.3,29.7,30.00,SW,225,1.0,2.0,83,0.00,,---,0.04,VWS V14.01,2014-01-15 04:21:00,
2014-01-14 23:26:00,34.1,29.5,30.01,WNW,298,5.0,5.0,83,0.00,,---,0.04,VWS V14.01,2014-01-15 04:26:00,
2014-01-14 23:31:00,34.3,29.7,30.01,West,267,5.0,5.0,83,0.00,,---,0.04,VWS V14.01,2014-01-15 04:31:00,
2014-01-14 23:36:00,34.4,29.5,30.01,NW,322,3.0,6.0,82,0.00,,---,0.04,VWS V14.01,2014-01-15 04:36:00,
2014-01-14 23:41:00,34.3,28.5,30.01,WNW,291,5.0,8.0,79,0.00,,---,0.04,VWS V14.01,2014-01-15 04:41:00,
2014-01-14 23:46:00,34.2,28.4,30.01,NNW,337,3.0,4.0,79,0.00,,---,0.04,VWS V14.01,2014-01-15 04:46:00,
2014-01-14 23:51:00,34.1,28.3,30.01,NW,309,3.0,3.0,79,0.00,,---,0.04,VWS V14.01,2014-01-15 04:51:00,
2014-01-14 23:56:00,34.0,28.2,30.01,NW,308,2.0,3.0,79,0.00,,---,0.04,VWS V14.01,2014-01-15 04:56:00,